sensor_id;sensor_type;location;lat;lon;timestamp;pressure;altitude;pressure_sealevel;temperature;humidity
4590;BME280;2307;48.448;9.216;2022-07-23T00:01:34;95539.44;;;21.42;100.00
4590;BME280;2307;48.448;9.216;2022-07-23T00:04:01;95524.72;;;21.39;100.00
4590;BME280;2307;48.448;9.216;2022-07-23T00:06:28;95509.06;;;21.68;94.17
4590;BME280;2307;48.448;9.216;2022-07-23T00:08:54;95485.41;;;21.93;91.48
4590;BME280;2307;48.448;9.216;2022-07-23T00:11:21;95468.50;;;22.14;86.00
4590;BME280;2307;48.448;9.216;2022-07-23T00:13:48;95453.09;;;22.06;92.42
4590;BME280;2307;48.448;9.216;2022-07-23T00:16:14;95445.03;;;22.06;95.48
4590;BME280;2307;48.448;9.216;2022-07-23T00:18:40;95438.09;;;21.92;97.26
4590;BME280;2307;48.448;9.216;2022-07-23T00:21:08;95433.50;;;21.92;100.00
4590;BME280;2307;48.448;9.216;2022-07-23T00:23:34;95420.41;;;21.77;100.00
4590;BME280;2307;48.448;9.216;2022-07-23T00:26:01;95431.75;;;21.74;100.00
4590;BME280;2307;48.448;9.216;2022-07-23T00:28:27;95426.13;;;21.62;100.00
4590;BME280;2307;48.448;9.216;2022-07-23T00:30:54;95422.84;;;21.65;95.42
4590;BME280;2307;48.448;9.216;2022-07-23T00:33:20;95412.47;;;21.72;91.28
4590;BME280;2307;48.448;9.216;2022-07-23T00:35:46;95422.56;;;21.89;89.31
4590;BME280;2307;48.448;9.216;2022-07-23T00:38:14;95429.00;;;22.01;84.36
4590;BME280;2307;48.448;9.216;2022-07-23T00:40:41;95441.09;;;22.12;83.18
4590;BME280;2307;48.448;9.216;2022-07-23T00:43:07;95452.09;;;22.24;76.41
4590;BME280;2307;48.448;9.216;2022-07-23T00:45:33;95437.22;;;22.49;70.63
4590;BME280;2307;48.448;9.216;2022-07-23T00:48:00;95444.00;;;22.69;66.21
4590;BME280;2307;48.448;9.216;2022-07-23T00:50:26;95448.19;;;22.84;67.32
4590;BME280;2307;48.448;9.216;2022-07-23T00:52:53;95444.03;;;22.77;69.98
4590;BME280;2307;48.448;9.216;2022-07-23T00:55:21;95462.72;;;23.13;57.15
4590;BME280;2307;48.448;9.216;2022-07-23T00:57:47;95488.41;;;23.11;75.77
4590;BME280;2307;48.448;9.216;2022-07-23T01:00:14;95498.22;;;23.15;81.69
4590;BME280;2307;48.448;9.216;2022-07-23T01:02:41;95490.97;;;22.85;88.19
4590;BME280;2307;48.448;9.216;2022-07-23T01:05:07;95496.75;;;22.70;94.42
4590;BME280;2307;48.448;9.216;2022-07-23T01:07:34;95501.97;;;22.66;97.69
4590;BME280;2307;48.448;9.216;2022-07-23T01:10:01;95499.97;;;22.58;99.49
4590;BME280;2307;48.448;9.216;2022-07-23T01:12:29;95502.16;;;22.70;100.00
4590;BME280;2307;48.448;9.216;2022-07-23T01:14:55;95499.31;;;22.75;100.00
4590;BME280;2307;48.448;9.216;2022-07-23T01:17:22;95476.69;;;22.76;100.00
4590;BME280;2307;48.448;9.216;2022-07-23T01:19:48;95467.47;;;22.77;100.00
4590;BME280;2307;48.448;9.216;2022-07-23T01:22:15;95473.84;;;22.81;100.00
4590;BME280;2307;48.448;9.216;2022-07-23T01:24:44;95453.75;;;22.65;100.00
4590;BME280;2307;48.448;9.216;2022-07-23T01:27:11;95444.22;;;22.81;100.00
4590;BME280;2307;48.448;9.216;2022-07-23T01:29:38;95436.00;;;22.86;100.00
4590;BME280;2307;48.448;9.216;2022-07-23T01:32:04;95432.00;;;22.84;100.00
4590;BME280;2307;48.448;9.216;2022-07-23T01:34:31;95414.25;;;22.52;100.00
4590;BME280;2307;48.448;9.216;2022-07-23T01:36:57;95398.41;;;22.42;100.00
4590;BME280;2307;48.448;9.216;2022-07-23T01:39:24;95385.16;;;22.54;100.00
4590;BME280;2307;48.448;9.216;2022-07-23T01:41:52;95383.81;;;22.43;100.00
4590;BME280;2307;48.448;9.216;2022-07-23T01:44:18;95378.25;;;22.39;96.58
4590;BME280;2307;48.448;9.216;2022-07-23T01:46:44;95369.25;;;22.44;91.21
4590;BME280;2307;48.448;9.216;2022-07-23T01:49:11;95365.69;;;22.57;88.37
4590;BME280;2307;48.448;9.216;2022-07-23T01:51:37;95369.00;;;22.54;88.11
4590;BME280;2307;48.448;9.216;2022-07-23T01:54:23;95381.00;;;22.48;83.51
4590;BME280;2307;48.448;9.216;2022-07-23T01:56:51;95377.53;;;22.56;73.52
4590;BME280;2307;48.448;9.216;2022-07-23T01:59:18;95378.19;;;22.61;72.51
4590;BME280;2307;48.448;9.216;2022-07-23T02:01:44;95371.97;;;22.52;73.67
4590;BME280;2307;48.448;9.216;2022-07-23T02:04:10;95343.47;;;22.82;69.58
4590;BME280;2307;48.448;9.216;2022-07-23T02:06:37;95334.00;;;23.10;68.79
4590;BME280;2307;48.448;9.216;2022-07-23T02:09:03;95348.28;;;23.19;57.64
4590;BME280;2307;48.448;9.216;2022-07-23T02:11:29;95363.38;;;23.29;61.24
4590;BME280;2307;48.448;9.216;2022-07-23T02:13:57;95372.88;;;23.18;67.74
4590;BME280;2307;48.448;9.216;2022-07-23T02:16:23;95388.53;;;23.16;66.75
4590;BME280;2307;48.448;9.216;2022-07-23T02:18:50;95388.88;;;23.23;62.59
4590;BME280;2307;48.448;9.216;2022-07-23T02:21:16;95397.59;;;23.20;58.66
4590;BME280;2307;48.448;9.216;2022-07-23T02:23:43;95410.91;;;23.16;58.27
4590;BME280;2307;48.448;9.216;2022-07-23T02:26:09;95425.44;;;23.07;63.65
4590;BME280;2307;48.448;9.216;2022-07-23T02:28:36;95432.56;;;23.03;66.43
4590;BME280;2307;48.448;9.216;2022-07-23T02:31:03;95424.63;;;22.98;68.75
4590;BME280;2307;48.448;9.216;2022-07-23T02:33:31;95439.19;;;22.97;68.87
4590;BME280;2307;48.448;9.216;2022-07-23T02:35:58;95451.94;;;23.13;69.28
4590;BME280;2307;48.448;9.216;2022-07-23T02:38:24;95471.78;;;23.17;76.15
4590;BME280;2307;48.448;9.216;2022-07-23T02:40:51;95484.56;;;23.03;81.87
4590;BME280;2307;48.448;9.216;2022-07-23T02:43:17;95493.84;;;22.89;86.10
4590;BME280;2307;48.448;9.216;2022-07-23T02:45:43;95491.44;;;22.87;88.23
4590;BME280;2307;48.448;9.216;2022-07-23T02:48:11;95484.50;;;22.86;91.88
4590;BME280;2307;48.448;9.216;2022-07-23T02:50:39;95489.53;;;22.79;86.88
4590;BME280;2307;48.448;9.216;2022-07-23T02:53:05;95494.09;;;22.79;85.79
4590;BME280;2307;48.448;9.216;2022-07-23T02:55:31;95487.94;;;22.56;89.87
4590;BME280;2307;48.448;9.216;2022-07-23T02:57:58;95486.09;;;22.43;92.42
4590;BME280;2307;48.448;9.216;2022-07-23T03:00:24;95486.09;;;22.43;93.08
4590;BME280;2307;48.448;9.216;2022-07-23T03:02:51;95505.78;;;22.52;92.30
4590;BME280;2307;48.448;9.216;2022-07-23T03:05:18;95500.25;;;22.48;95.32
4590;BME280;2307;48.448;9.216;2022-07-23T03:07:45;95511.59;;;22.45;99.43
4590;BME280;2307;48.448;9.216;2022-07-23T03:10:11;95519.75;;;22.32;100.00
4590;BME280;2307;48.448;9.216;2022-07-23T03:15:04;95523.41;;;22.36;100.00
4590;BME280;2307;48.448;9.216;2022-07-23T03:17:31;95528.53;;;22.23;100.00
4590;BME280;2307;48.448;9.216;2022-07-23T03:19:57;95531.59;;;22.31;100.00
4590;BME280;2307;48.448;9.216;2022-07-23T03:22:25;95523.13;;;22.01;100.00
4590;BME280;2307;48.448;9.216;2022-07-23T03:24:51;95519.59;;;22.14;100.00
4590;BME280;2307;48.448;9.216;2022-07-23T03:27:21;95534.66;;;22.15;100.00
4590;BME280;2307;48.448;9.216;2022-07-23T03:29:48;95528.66;;;22.18;100.00
4590;BME280;2307;48.448;9.216;2022-07-23T03:32:14;95521.22;;;22.15;100.00
4590;BME280;2307;48.448;9.216;2022-07-23T03:34:41;95514.03;;;22.11;100.00
4590;BME280;2307;48.448;9.216;2022-07-23T03:37:07;95511.16;;;22.07;100.00
4590;BME280;2307;48.448;9.216;2022-07-23T03:39:35;95515.94;;;22.10;100.00
4590;BME280;2307;48.448;9.216;2022-07-23T03:42:01;95511.66;;;22.09;100.00
4590;BME280;2307;48.448;9.216;2022-07-23T03:44:28;95517.16;;;22.04;100.00
4590;BME280;2307;48.448;9.216;2022-07-23T03:46:54;95519.09;;;21.90;100.00
4590;BME280;2307;48.448;9.216;2022-07-23T03:49:21;95520.28;;;21.84;100.00
4590;BME280;2307;48.448;9.216;2022-07-23T03:51:47;95516.47;;;21.85;100.00
4590;BME280;2307;48.448;9.216;2022-07-23T03:54:13;95525.66;;;21.84;100.00
4590;BME280;2307;48.448;9.216;2022-07-23T03:56:41;95532.16;;;21.56;100.00
4590;BME280;2307;48.448;9.216;2022-07-23T03:59:08;95533.28;;;21.28;100.00
4590;BME280;2307;48.448;9.216;2022-07-23T04:01:35;95533.66;;;21.35;100.00
4590;BME280;2307;48.448;9.216;2022-07-23T04:04:01;95522.63;;;21.50;100.00
4590;BME280;2307;48.448;9.216;2022-07-23T04:06:28;95520.63;;;21.42;100.00
4590;BME280;2307;48.448;9.216;2022-07-23T04:08:54;95520.81;;;21.59;100.00
4590;BME280;2307;48.448;9.216;2022-07-23T04:11:21;95528.16;;;21.67;100.00
4590;BME280;2307;48.448;9.216;2022-07-23T04:13:49;95521.97;;;21.66;100.00
4590;BME280;2307;48.448;9.216;2022-07-23T04:16:15;95534.06;;;21.55;100.00
4590;BME280;2307;48.448;9.216;2022-07-23T04:18:41;95519.03;;;21.41;100.00
4590;BME280;2307;48.448;9.216;2022-07-23T04:21:08;95516.66;;;21.26;100.00
4590;BME280;2307;48.448;9.216;2022-07-23T04:23:34;95511.16;;;21.44;100.00
4590;BME280;2307;48.448;9.216;2022-07-23T04:26:01;95520.94;;;21.40;100.00
4590;BME280;2307;48.448;9.216;2022-07-23T04:28:27;95528.59;;;21.33;100.00
4590;BME280;2307;48.448;9.216;2022-07-23T04:30:57;95530.19;;;21.21;100.00
4590;BME280;2307;48.448;9.216;2022-07-23T04:33:23;95529.19;;;21.16;100.00
4590;BME280;2307;48.448;9.216;2022-07-23T04:35:49;95529.47;;;21.29;100.00
4590;BME280;2307;48.448;9.216;2022-07-23T04:38:16;95535.94;;;21.41;100.00
4590;BME280;2307;48.448;9.216;2022-07-23T04:40:42;95538.75;;;21.50;100.00
4590;BME280;2307;48.448;9.216;2022-07-23T04:43:09;95533.75;;;21.57;100.00
4590;BME280;2307;48.448;9.216;2022-07-23T04:45:35;95536.16;;;21.45;99.07
4590;BME280;2307;48.448;9.216;2022-07-23T04:48:03;95546.81;;;21.50;99.67
4590;BME280;2307;48.448;9.216;2022-07-23T04:50:30;95551.66;;;21.48;99.88
4590;BME280;2307;48.448;9.216;2022-07-23T04:52:56;95548.97;;;21.48;98.56
4590;BME280;2307;48.448;9.216;2022-07-23T04:55:22;95536.06;;;21.36;100.00
4590;BME280;2307;48.448;9.216;2022-07-23T04:57:49;95540.94;;;21.21;100.00
4590;BME280;2307;48.448;9.216;2022-07-23T05:00:16;95534.06;;;21.42;100.00
4590;BME280;2307;48.448;9.216;2022-07-23T05:02:42;95547.69;;;21.32;100.00
4590;BME280;2307;48.448;9.216;2022-07-23T05:05:10;95541.53;;;21.45;100.00
4590;BME280;2307;48.448;9.216;2022-07-23T05:07:37;95554.16;;;21.58;100.00
4590;BME280;2307;48.448;9.216;2022-07-23T05:10:03;95558.25;;;21.55;100.00
4590;BME280;2307;48.448;9.216;2022-07-23T05:12:30;95553.28;;;21.49;100.00
4590;BME280;2307;48.448;9.216;2022-07-23T05:14:57;95551.88;;;21.65;100.00
4590;BME280;2307;48.448;9.216;2022-07-23T05:17:24;95551.53;;;21.80;100.00
4590;BME280;2307;48.448;9.216;2022-07-23T05:19:50;95553.03;;;21.72;100.00
4590;BME280;2307;48.448;9.216;2022-07-23T05:22:18;95566.59;;;21.54;100.00
4590;BME280;2307;48.448;9.216;2022-07-23T05:24:44;95570.78;;;21.60;100.00
4590;BME280;2307;48.448;9.216;2022-07-23T05:27:11;95555.56;;;21.69;100.00
4590;BME280;2307;48.448;9.216;2022-07-23T05:29:37;95556.72;;;21.77;100.00
4590;BME280;2307;48.448;9.216;2022-07-23T05:32:04;95554.63;;;21.87;100.00
4590;BME280;2307;48.448;9.216;2022-07-23T05:34:30;95553.25;;;21.90;100.00
4590;BME280;2307;48.448;9.216;2022-07-23T05:36:57;95546.03;;;21.85;100.00
4590;BME280;2307;48.448;9.216;2022-07-23T05:39:24;95534.94;;;21.78;97.16
4590;BME280;2307;48.448;9.216;2022-07-23T05:41:51;95536.50;;;21.79;91.95
4590;BME280;2307;48.448;9.216;2022-07-23T05:44:17;95536.75;;;21.69;90.60
4590;BME280;2307;48.448;9.216;2022-07-23T05:46:44;95540.13;;;21.75;88.40
4590;BME280;2307;48.448;9.216;2022-07-23T05:49:10;95541.50;;;21.72;93.10
4590;BME280;2307;48.448;9.216;2022-07-23T05:51:36;95536.13;;;21.72;94.97
4590;BME280;2307;48.448;9.216;2022-07-23T05:54:03;95536.09;;;21.86;95.13
4590;BME280;2307;48.448;9.216;2022-07-23T05:56:31;95531.72;;;22.03;100.00
4590;BME280;2307;48.448;9.216;2022-07-23T05:58:57;95529.88;;;22.12;100.00
4590;BME280;2307;48.448;9.216;2022-07-23T06:01:24;95538.16;;;22.16;100.00
4590;BME280;2307;48.448;9.216;2022-07-23T06:03:50;95533.88;;;22.15;100.00
4590;BME280;2307;48.448;9.216;2022-07-23T06:06:16;95536.41;;;22.20;100.00
4590;BME280;2307;48.448;9.216;2022-07-23T06:08:43;95531.84;;;22.20;100.00
4590;BME280;2307;48.448;9.216;2022-07-23T06:11:09;95522.72;;;22.08;100.00
4590;BME280;2307;48.448;9.216;2022-07-23T06:13:37;95534.63;;;22.29;100.00
4590;BME280;2307;48.448;9.216;2022-07-23T06:16:04;95528.38;;;22.42;100.00
4590;BME280;2307;48.448;9.216;2022-07-23T06:18:30;95522.69;;;22.44;100.00
4590;BME280;2307;48.448;9.216;2022-07-23T06:20:56;95522.88;;;22.47;99.32
4590;BME280;2307;48.448;9.216;2022-07-23T06:23:23;95523.53;;;22.53;96.70
4590;BME280;2307;48.448;9.216;2022-07-23T06:25:49;95518.53;;;22.60;99.94
4590;BME280;2307;48.448;9.216;2022-07-23T06:28:16;95522.72;;;22.66;99.72
4590;BME280;2307;48.448;9.216;2022-07-23T06:30:43;95519.50;;;22.64;95.64
4590;BME280;2307;48.448;9.216;2022-07-23T06:33:10;95524.97;;;22.72;98.52
4590;BME280;2307;48.448;9.216;2022-07-23T06:35:37;95526.19;;;22.66;98.91
4590;BME280;2307;48.448;9.216;2022-07-23T06:38:03;95532.44;;;22.75;97.78
4590;BME280;2307;48.448;9.216;2022-07-23T06:40:30;95535.34;;;22.88;96.42
4590;BME280;2307;48.448;9.216;2022-07-23T06:42:56;95535.09;;;22.98;93.42
4590;BME280;2307;48.448;9.216;2022-07-23T06:45:23;95534.44;;;22.92;91.71
4590;BME280;2307;48.448;9.216;2022-07-23T06:47:50;95543.84;;;22.81;95.93
4590;BME280;2307;48.448;9.216;2022-07-23T06:50:17;95554.00;;;22.84;99.25
4590;BME280;2307;48.448;9.216;2022-07-23T06:52:43;95549.13;;;22.86;97.78
4590;BME280;2307;48.448;9.216;2022-07-23T06:55:10;95551.50;;;22.88;100.00
4590;BME280;2307;48.448;9.216;2022-07-23T06:57:36;95561.03;;;22.94;100.00
4590;BME280;2307;48.448;9.216;2022-07-23T07:00:03;95554.84;;;22.93;100.00
4590;BME280;2307;48.448;9.216;2022-07-23T07:02:29;95563.22;;;22.83;100.00
4590;BME280;2307;48.448;9.216;2022-07-23T07:04:57;95559.00;;;22.68;98.33
4590;BME280;2307;48.448;9.216;2022-07-23T07:07:23;95567.38;;;22.89;97.29
4590;BME280;2307;48.448;9.216;2022-07-23T07:09:50;95575.97;;;23.00;95.84
4590;BME280;2307;48.448;9.216;2022-07-23T07:12:16;95577.75;;;23.04;96.82
4590;BME280;2307;48.448;9.216;2022-07-23T07:14:43;95576.22;;;22.90;94.85
4590;BME280;2307;48.448;9.216;2022-07-23T07:17:09;95578.38;;;23.01;95.58
4590;BME280;2307;48.448;9.216;2022-07-23T07:19:36;95581.50;;;23.25;91.45
4590;BME280;2307;48.448;9.216;2022-07-23T07:22:03;95585.25;;;23.47;90.82
4590;BME280;2307;48.448;9.216;2022-07-23T07:24:30;95588.81;;;23.56;88.60
4590;BME280;2307;48.448;9.216;2022-07-23T07:26:56;95595.31;;;23.55;85.93
4590;BME280;2307;48.448;9.216;2022-07-23T07:29:23;95592.28;;;23.56;86.53
4590;BME280;2307;48.448;9.216;2022-07-23T07:31:49;95601.84;;;23.62;90.62
4590;BME280;2307;48.448;9.216;2022-07-23T07:34:15;95595.50;;;23.67;87.61
4590;BME280;2307;48.448;9.216;2022-07-23T07:36:42;95607.56;;;23.39;86.71
4590;BME280;2307;48.448;9.216;2022-07-23T07:39:10;95606.53;;;23.48;86.62
4590;BME280;2307;48.448;9.216;2022-07-23T07:41:36;95588.63;;;23.52;87.75
4590;BME280;2307;48.448;9.216;2022-07-23T07:44:03;95601.13;;;23.40;85.80
4590;BME280;2307;48.448;9.216;2022-07-23T07:46:29;95602.94;;;23.61;88.35
4590;BME280;2307;48.448;9.216;2022-07-23T07:48:55;95604.28;;;23.81;86.09
4590;BME280;2307;48.448;9.216;2022-07-23T07:51:22;95608.91;;;23.98;77.84
4590;BME280;2307;48.448;9.216;2022-07-23T07:53:48;95605.66;;;24.18;78.61
4590;BME280;2307;48.448;9.216;2022-07-23T07:56:16;95610.94;;;24.31;77.19
4590;BME280;2307;48.448;9.216;2022-07-23T07:58:42;95612.50;;;24.32;76.22
4590;BME280;2307;48.448;9.216;2022-07-23T08:01:09;95618.06;;;24.36;77.50
4590;BME280;2307;48.448;9.216;2022-07-23T08:03:35;95615.06;;;24.38;77.90
4590;BME280;2307;48.448;9.216;2022-07-23T08:06:02;95617.47;;;24.48;75.96
4590;BME280;2307;48.448;9.216;2022-07-23T08:08:28;95622.19;;;24.42;77.63
4590;BME280;2307;48.448;9.216;2022-07-23T08:10:55;95622.19;;;24.33;76.35
4590;BME280;2307;48.448;9.216;2022-07-23T08:13:22;95631.25;;;24.38;78.73
4590;BME280;2307;48.448;9.216;2022-07-23T08:15:49;95624.59;;;24.44;80.07
4590;BME280;2307;48.448;9.216;2022-07-23T08:18:18;95625.72;;;24.60;79.13
4590;BME280;2307;48.448;9.216;2022-07-23T08:20:44;95633.00;;;24.68;77.47
4590;BME280;2307;48.448;9.216;2022-07-23T08:23:11;95627.00;;;24.79;76.04
4590;BME280;2307;48.448;9.216;2022-07-23T08:25:37;95633.81;;;24.77;73.50
4590;BME280;2307;48.448;9.216;2022-07-23T08:28:05;95634.97;;;24.84;72.15
4590;BME280;2307;48.448;9.216;2022-07-23T08:30:33;95637.03;;;24.88;72.41
4590;BME280;2307;48.448;9.216;2022-07-23T08:33:00;95637.63;;;24.93;72.39
4590;BME280;2307;48.448;9.216;2022-07-23T08:35:27;95635.44;;;24.95;76.79
4590;BME280;2307;48.448;9.216;2022-07-23T08:37:54;95630.97;;;25.08;72.65
4590;BME280;2307;48.448;9.216;2022-07-23T08:40:21;95639.22;;;25.11;68.77
4590;BME280;2307;48.448;9.216;2022-07-23T08:42:48;95637.66;;;24.84;71.42
4590;BME280;2307;48.448;9.216;2022-07-23T08:45:15;95640.19;;;24.98;69.19
4590;BME280;2307;48.448;9.216;2022-07-23T08:47:44;95636.69;;;25.06;68.49
4590;BME280;2307;48.448;9.216;2022-07-23T08:50:10;95639.06;;;24.91;67.50
4590;BME280;2307;48.448;9.216;2022-07-23T08:52:37;95640.97;;;25.07;68.69
4590;BME280;2307;48.448;9.216;2022-07-23T08:55:05;95643.19;;;25.14;69.33
4590;BME280;2307;48.448;9.216;2022-07-23T08:57:31;95649.41;;;25.14;72.61
4590;BME280;2307;48.448;9.216;2022-07-23T08:59:58;95637.59;;;25.27;70.29
4590;BME280;2307;48.448;9.216;2022-07-23T09:02:24;95631.03;;;25.37;68.67
4590;BME280;2307;48.448;9.216;2022-07-23T09:04:52;95620.09;;;25.33;66.45
4590;BME280;2307;48.448;9.216;2022-07-23T09:07:18;95615.16;;;25.35;71.79
4590;BME280;2307;48.448;9.216;2022-07-23T09:09:45;95615.81;;;25.24;73.08
4590;BME280;2307;48.448;9.216;2022-07-23T09:12:11;95617.69;;;25.32;77.68
4590;BME280;2307;48.448;9.216;2022-07-23T09:14:38;95609.38;;;25.54;69.26
4590;BME280;2307;48.448;9.216;2022-07-23T09:17:11;95612.88;;;25.55;74.96
4590;BME280;2307;48.448;9.216;2022-07-23T09:19:38;95613.78;;;25.67;68.47
4590;BME280;2307;48.448;9.216;2022-07-23T09:22:19;95617.09;;;25.73;67.52
4590;BME280;2307;48.448;9.216;2022-07-23T09:27:26;95616.59;;;25.79;70.24
4590;BME280;2307;48.448;9.216;2022-07-23T09:30:10;95614.50;;;25.85;69.81
4590;BME280;2307;48.448;9.216;2022-07-23T09:32:37;95621.66;;;25.89;71.01
4590;BME280;2307;48.448;9.216;2022-07-23T09:35:05;95627.97;;;26.02;70.62
4590;BME280;2307;48.448;9.216;2022-07-23T09:37:33;95626.22;;;25.98;66.83
4590;BME280;2307;48.448;9.216;2022-07-23T09:40:03;95619.41;;;25.92;67.94
4590;BME280;2307;48.448;9.216;2022-07-23T09:42:30;95617.94;;;25.94;67.42
4590;BME280;2307;48.448;9.216;2022-07-23T09:44:57;95625.25;;;26.02;65.26
4590;BME280;2307;48.448;9.216;2022-07-23T09:47:25;95623.00;;;26.04;65.99
4590;BME280;2307;48.448;9.216;2022-07-23T09:49:58;95609.75;;;26.11;63.72
4590;BME280;2307;48.448;9.216;2022-07-23T09:52:26;95620.91;;;26.10;66.44
4590;BME280;2307;48.448;9.216;2022-07-23T09:54:58;95617.88;;;26.11;64.84
4590;BME280;2307;48.448;9.216;2022-07-23T09:57:25;95620.63;;;26.03;66.39
4590;BME280;2307;48.448;9.216;2022-07-23T09:59:52;95619.13;;;26.22;66.65
4590;BME280;2307;48.448;9.216;2022-07-23T10:02:18;95618.91;;;26.27;69.53
4590;BME280;2307;48.448;9.216;2022-07-23T10:04:45;95624.22;;;26.45;65.01
4590;BME280;2307;48.448;9.216;2022-07-23T10:07:12;95607.22;;;26.35;64.38
4590;BME280;2307;48.448;9.216;2022-07-23T10:09:40;95606.91;;;26.37;72.51
4590;BME280;2307;48.448;9.216;2022-07-23T10:12:10;95609.06;;;26.64;67.17
4590;BME280;2307;48.448;9.216;2022-07-23T10:14:51;95601.03;;;26.76;67.88
4590;BME280;2307;48.448;9.216;2022-07-23T10:17:18;95607.38;;;27.01;63.55
4590;BME280;2307;48.448;9.216;2022-07-23T10:19:44;95611.44;;;27.07;63.09
4590;BME280;2307;48.448;9.216;2022-07-23T10:22:12;95610.88;;;27.02;67.62
4590;BME280;2307;48.448;9.216;2022-07-23T10:24:59;95619.34;;;27.12;62.81
4590;BME280;2307;48.448;9.216;2022-07-23T10:30:31;95613.34;;;27.39;66.83
4590;BME280;2307;48.448;9.216;2022-07-23T10:33:05;95615.69;;;27.62;60.13
4590;BME280;2307;48.448;9.216;2022-07-23T10:35:39;95617.84;;;27.68;60.64
4590;BME280;2307;48.448;9.216;2022-07-23T10:38:10;95623.03;;;27.73;57.10
4590;BME280;2307;48.448;9.216;2022-07-23T10:40:49;95612.28;;;27.89;55.26
4590;BME280;2307;48.448;9.216;2022-07-23T10:43:19;95605.72;;;28.02;56.66
4590;BME280;2307;48.448;9.216;2022-07-23T10:45:47;95611.63;;;27.80;57.09
4590;BME280;2307;48.448;9.216;2022-07-23T10:48:14;95604.03;;;27.73;57.18
4590;BME280;2307;48.448;9.216;2022-07-23T10:50:41;95611.63;;;27.80;55.21
4590;BME280;2307;48.448;9.216;2022-07-23T10:53:11;95617.28;;;27.99;56.23
4590;BME280;2307;48.448;9.216;2022-07-23T10:55:40;95615.47;;;28.03;55.44
4590;BME280;2307;48.448;9.216;2022-07-23T10:58:07;95619.75;;;27.92;57.18
4590;BME280;2307;48.448;9.216;2022-07-23T11:00:33;95604.16;;;27.89;55.75
4590;BME280;2307;48.448;9.216;2022-07-23T11:03:02;95614.44;;;27.83;58.88
4590;BME280;2307;48.448;9.216;2022-07-23T11:05:39;95621.13;;;27.98;54.83
4590;BME280;2307;48.448;9.216;2022-07-23T11:08:10;95617.47;;;27.46;58.74
4590;BME280;2307;48.448;9.216;2022-07-23T11:10:37;95619.75;;;27.68;60.12
4590;BME280;2307;48.448;9.216;2022-07-23T11:23:59;95621.56;;;27.88;54.96
4590;BME280;2307;48.448;9.216;2022-07-23T11:26:40;95628.69;;;27.92;53.59
4590;BME280;2307;48.448;9.216;2022-07-23T11:31:51;95622.22;;;27.73;49.97
4590;BME280;2307;48.448;9.216;2022-07-23T11:34:24;95620.19;;;27.58;52.58
4590;BME280;2307;48.448;9.216;2022-07-23T11:36:51;95632.41;;;27.76;54.25
4590;BME280;2307;48.448;9.216;2022-07-23T11:39:19;95629.94;;;27.83;55.62
4590;BME280;2307;48.448;9.216;2022-07-23T11:41:46;95630.19;;;28.02;52.23
4590;BME280;2307;48.448;9.216;2022-07-23T11:44:23;95623.84;;;28.10;54.01
4590;BME280;2307;48.448;9.216;2022-07-23T11:46:53;95627.03;;;28.24;52.76
4590;BME280;2307;48.448;9.216;2022-07-23T11:49:20;95619.06;;;28.43;51.15
4590;BME280;2307;48.448;9.216;2022-07-23T11:51:46;95612.63;;;28.88;50.97
4590;BME280;2307;48.448;9.216;2022-07-23T11:54:13;95610.78;;;29.20;48.33
4590;BME280;2307;48.448;9.216;2022-07-23T11:59:36;95603.50;;;29.51;48.97
4590;BME280;2307;48.448;9.216;2022-07-23T12:02:05;95595.81;;;29.26;49.07
4590;BME280;2307;48.448;9.216;2022-07-23T12:04:41;95602.72;;;29.23;49.71
4590;BME280;2307;48.448;9.216;2022-07-23T12:07:22;95597.00;;;29.13;48.76
4590;BME280;2307;48.448;9.216;2022-07-23T12:09:48;95611.63;;;29.08;47.12
4590;BME280;2307;48.448;9.216;2022-07-23T12:12:15;95604.81;;;28.86;47.27
4590;BME280;2307;48.448;9.216;2022-07-23T12:14:48;95604.09;;;29.02;48.47
4590;BME280;2307;48.448;9.216;2022-07-23T12:17:14;95604.91;;;28.90;48.59
4590;BME280;2307;48.448;9.216;2022-07-23T12:19:41;95604.53;;;29.04;47.72
4590;BME280;2307;48.448;9.216;2022-07-23T12:22:07;95608.53;;;28.94;49.25
4590;BME280;2307;48.448;9.216;2022-07-23T12:27:15;95599.63;;;28.81;48.65
4590;BME280;2307;48.448;9.216;2022-07-23T12:29:47;95603.88;;;28.94;47.72
4590;BME280;2307;48.448;9.216;2022-07-23T12:32:20;95596.00;;;28.77;49.40
4590;BME280;2307;48.448;9.216;2022-07-23T12:34:47;95596.13;;;28.81;50.05
4590;BME280;2307;48.448;9.216;2022-07-23T12:39:55;95600.31;;;28.78;47.56
4590;BME280;2307;48.448;9.216;2022-07-23T12:42:22;95594.03;;;28.90;49.13
4590;BME280;2307;48.448;9.216;2022-07-23T12:45:07;95593.66;;;29.04;48.35
4590;BME280;2307;48.448;9.216;2022-07-23T12:47:53;95603.56;;;29.12;46.74
4590;BME280;2307;48.448;9.216;2022-07-23T12:50:36;95599.47;;;28.90;48.34
4590;BME280;2307;48.448;9.216;2022-07-23T12:53:04;95601.94;;;29.23;48.69
4590;BME280;2307;48.448;9.216;2022-07-23T12:55:30;95606.13;;;29.48;48.97
4590;BME280;2307;48.448;9.216;2022-07-23T12:58:02;95608.97;;;29.67;45.50
4590;BME280;2307;48.448;9.216;2022-07-23T13:00:31;95596.47;;;29.97;48.90
4590;BME280;2307;48.448;9.216;2022-07-23T13:02:57;95595.84;;;30.20;45.07
4590;BME280;2307;48.448;9.216;2022-07-23T13:05:23;95599.09;;;30.25;44.99
4590;BME280;2307;48.448;9.216;2022-07-23T13:07:50;95602.97;;;30.24;44.60
4590;BME280;2307;48.448;9.216;2022-07-23T13:10:16;95613.84;;;30.24;44.92
4590;BME280;2307;48.448;9.216;2022-07-23T13:12:43;95608.41;;;30.24;42.77
4590;BME280;2307;48.448;9.216;2022-07-23T13:15:09;95613.69;;;30.17;43.56
4590;BME280;2307;48.448;9.216;2022-07-23T13:17:37;95614.44;;;29.83;43.23
4590;BME280;2307;48.448;9.216;2022-07-23T13:20:04;95609.56;;;29.61;44.03
4590;BME280;2307;48.448;9.216;2022-07-23T13:22:31;95616.59;;;29.62;43.46
4590;BME280;2307;48.448;9.216;2022-07-23T13:24:57;95614.66;;;29.62;42.91
4590;BME280;2307;48.448;9.216;2022-07-23T13:27:23;95608.16;;;29.51;44.56
4590;BME280;2307;48.448;9.216;2022-07-23T13:29:50;95614.13;;;29.57;42.94
4590;BME280;2307;48.448;9.216;2022-07-23T13:32:16;95611.41;;;29.57;43.16
4590;BME280;2307;48.448;9.216;2022-07-23T13:34:44;95618.25;;;29.66;44.39
4590;BME280;2307;48.448;9.216;2022-07-23T13:37:10;95610.19;;;29.70;44.30
4590;BME280;2307;48.448;9.216;2022-07-23T13:39:38;95614.13;;;29.72;44.78
4590;BME280;2307;48.448;9.216;2022-07-23T13:42:04;95612.81;;;29.50;45.42
4590;BME280;2307;48.448;9.216;2022-07-23T13:44:31;95615.06;;;29.33;44.68
4590;BME280;2307;48.448;9.216;2022-07-23T13:46:57;95619.84;;;29.24;45.01
4590;BME280;2307;48.448;9.216;2022-07-23T13:49:24;95615.88;;;29.21;45.24
4590;BME280;2307;48.448;9.216;2022-07-23T13:51:52;95615.03;;;29.05;45.80